IN-0052 weather

Mathura Heliport
Mathura, Uttar Pradesh, India

Public forecast

Using degrees Celsius for public forecast. Weather courtesy of forecast.io.

METAR (pilot weather report)

Closest report is Agra Airport, 23.7 nm (44.0 km) SE. Retrieved 2019/09/21 06:30 UTC (0 seconds ago):

VIAG 210630Z 08006KT 6000 -RA FEW020 SCT025 FEW030CB BKN090 29/25 Q1008 TEMPO 3000 TSRA

TAF (pilot weather forecast)

Closest forecast is Agra Airport, 23.7 nm (44.0 km) SE. Retrieved 2019/09/21 06:30 UTC (0 seconds ago):

TAF VIAG 210330Z 2106/2118 09008KT 6000 SCT020 TEMPO 2110/2114 3000 TSRA SCT015 FEW030CB SCT080